createdAt,value
2023-07-24T00:00:10.890Z,6.03
2023-07-24T00:03:34.622Z,6.32
2023-07-24T00:06:38.780Z,5.28
2023-07-24T00:09:42.825Z,5.05
2023-07-24T00:12:47.082Z,5.60
2023-07-24T00:15:52.258Z,5.00
2023-07-24T00:18:55.998Z,3.75
2023-07-24T00:21:59.780Z,5.10
2023-07-24T00:25:03.446Z,4.63
2023-07-24T00:28:07.239Z,7.33
2023-07-24T00:31:12.509Z,5.80
2023-07-24T00:34:16.466Z,3.97
2023-07-24T00:37:20.759Z,4.40
2023-07-24T00:40:24.530Z,5.18
2023-07-24T00:43:28.105Z,5.20
2023-07-24T00:46:34.908Z,4.35
2023-07-24T00:49:38.929Z,5.18
2023-07-24T00:52:43.898Z,9.02
2023-07-24T00:55:49.707Z,4.45
2023-07-24T00:58:54.651Z,5.77
2023-07-24T01:02:00.068Z,5.55
2023-07-24T01:05:04.283Z,5.15
2023-07-24T01:08:08.406Z,4.85
2023-07-24T01:11:18.243Z,3.25
2023-07-24T01:14:28.039Z,4.80
2023-07-24T01:17:35.455Z,5.45
2023-07-24T01:20:45.226Z,5.13
2023-07-24T01:24:01.574Z,5.80
2023-07-24T01:27:06.793Z,6.20
2023-07-24T01:30:11.859Z,5.60
2023-07-24T01:33:16.293Z,6.15
2023-07-24T01:36:22.649Z,5.45
2023-07-24T01:39:27.087Z,5.68
2023-07-24T01:42:32.965Z,5.70
2023-07-24T01:45:37.063Z,6.57
2023-07-24T01:48:40.869Z,4.07
2023-07-24T01:51:44.940Z,6.15
2023-07-24T01:54:49.186Z,5.63
2023-07-24T01:57:54.784Z,5.60
2023-07-24T02:00:58.556Z,6.05
2023-07-24T02:04:02.786Z,8.65
2023-07-24T02:07:07.244Z,5.88
2023-07-24T02:10:11.952Z,5.15
2023-07-24T02:13:17.389Z,5.55
2023-07-24T02:16:26.396Z,5.47
2023-07-24T02:19:30.254Z,5.30
2023-07-24T02:22:34.450Z,5.53
2023-07-24T02:25:38.480Z,6.57
2023-07-24T02:28:43.639Z,4.90
2023-07-24T02:31:47.435Z,6.28
2023-07-24T02:34:51.925Z,6.88
2023-07-24T02:37:55.835Z,5.00
2023-07-24T02:40:59.774Z,5.32
2023-07-24T02:44:06.801Z,5.00
2023-07-24T02:47:11.660Z,5.70
2023-07-24T02:50:15.624Z,5.68
2023-07-24T02:53:19.660Z,5.32
2023-07-24T02:56:23.696Z,8.70
2023-07-24T02:59:28.789Z,6.85
2023-07-24T03:02:32.689Z,10.43
2023-07-24T03:05:36.911Z,6.88
2023-07-24T03:08:41.137Z,4.68
2023-07-24T03:11:45.044Z,5.97
2023-07-24T03:14:50.542Z,6.50
2023-07-24T03:17:54.403Z,5.32
2023-07-24T03:21:00.495Z,5.63
2023-07-24T03:24:04.489Z,8.83
2023-07-24T03:27:08.426Z,7.82
2023-07-24T03:30:14.054Z,7.40
2023-07-24T03:33:18.769Z,7.97
2023-07-24T03:36:24.681Z,7.10
2023-07-24T03:39:29.114Z,6.07
2023-07-24T03:42:33.988Z,6.75
2023-07-24T03:45:39.124Z,6.55
2023-07-24T03:48:43.077Z,6.07
2023-07-24T03:51:46.890Z,6.63
2023-07-24T03:54:50.671Z,6.88
2023-07-24T03:57:54.667Z,6.15
2023-07-24T04:00:59.964Z,7.80
2023-07-24T04:04:03.856Z,7.38
2023-07-24T04:07:08.326Z,7.93
2023-07-24T04:10:12.129Z,6.63
2023-07-24T04:13:15.800Z,8.02
2023-07-24T04:16:20.992Z,11.10
2023-07-24T04:19:24.938Z,10.45
2023-07-24T04:22:28.641Z,10.90
2023-07-24T04:25:32.578Z,8.93
2023-07-24T04:28:36.366Z,6.82
2023-07-24T04:31:41.672Z,9.82
2023-07-24T04:34:45.473Z,7.97
2023-07-24T04:37:49.218Z,8.52
2023-07-24T04:40:53.156Z,11.10
2023-07-24T04:43:57.048Z,10.23
2023-07-24T04:47:03.675Z,9.52
2023-07-24T04:50:08.601Z,7.27
2023-07-24T04:53:12.468Z,7.75
2023-07-24T04:56:16.344Z,7.97
2023-07-24T04:59:20.406Z,5.97
2023-07-24T05:02:25.582Z,8.68
2023-07-24T05:05:29.424Z,10.77
2023-07-24T05:08:33.289Z,8.07
2023-07-24T05:11:37.056Z,7.22
2023-07-24T05:14:41.112Z,8.18
2023-07-24T05:17:46.822Z,7.38
2023-07-24T05:20:52.771Z,8.30
2023-07-24T05:23:57.071Z,8.93
2023-07-24T05:27:00.865Z,10.00
2023-07-24T05:30:04.976Z,9.88
2023-07-24T05:33:10.054Z,8.13
2023-07-24T05:36:13.955Z,7.28
2023-07-24T05:39:17.516Z,8.82
2023-07-24T05:42:21.424Z,8.00
2023-07-24T05:45:25.220Z,10.13
2023-07-24T05:48:30.360Z,9.77
2023-07-24T05:51:34.268Z,10.45
2023-07-24T05:54:37.974Z,10.53
2023-07-24T05:57:41.859Z,11.32
2023-07-24T06:00:45.632Z,10.98
2023-07-24T06:03:50.765Z,7.63
2023-07-24T06:06:54.523Z,7.40
2023-07-24T06:09:58.068Z,11.40
2023-07-24T06:13:01.756Z,9.00
2023-07-24T06:16:05.864Z,9.00
2023-07-24T06:19:11.038Z,9.57
2023-07-24T06:22:14.912Z,13.32
2023-07-24T06:25:18.829Z,6.70
2023-07-24T06:28:22.544Z,10.25
2023-07-24T06:31:26.329Z,8.68
2023-07-24T06:34:31.389Z,9.05
2023-07-24T06:37:35.155Z,5.05
2023-07-24T06:40:38.870Z,8.63
2023-07-24T06:43:42.866Z,7.63
2023-07-24T06:46:46.537Z,5.07
2023-07-24T06:49:51.570Z,6.07
2023-07-24T06:52:58.284Z,9.68
2023-07-24T06:56:02.040Z,8.20
2023-07-24T06:59:05.888Z,4.95
2023-07-24T07:02:09.690Z,5.60
2023-07-24T07:05:14.668Z,5.07
2023-07-24T07:08:18.566Z,5.60
2023-07-24T07:11:22.151Z,5.83
2023-07-24T07:14:26.102Z,5.47
2023-07-24T07:17:30.345Z,5.30
2023-07-24T07:20:35.577Z,6.40
2023-07-24T07:23:39.966Z,5.55
2023-07-24T07:26:43.677Z,6.20
2023-07-24T07:29:48.057Z,5.13
2023-07-24T07:32:51.771Z,6.85
2023-07-24T07:35:59.428Z,7.15
2023-07-24T07:39:03.794Z,6.70
2023-07-24T07:42:17.516Z,8.20
2023-07-24T07:45:22.729Z,4.53
2023-07-24T07:48:26.140Z,5.22
2023-07-24T07:51:31.259Z,4.72
2023-07-24T07:54:34.707Z,6.40
2023-07-24T07:57:39.231Z,5.17
2023-07-24T08:00:42.800Z,5.18
2023-07-24T08:03:46.924Z,5.43
2023-07-24T08:06:51.805Z,5.10
2023-07-24T08:09:55.939Z,6.72
2023-07-24T08:12:59.372Z,4.97
2023-07-24T08:16:04.882Z,10.05
2023-07-24T08:19:08.687Z,5.10
2023-07-24T08:22:14.490Z,5.13
2023-07-24T08:25:18.337Z,6.57
2023-07-24T08:28:23.177Z,5.60
2023-07-24T08:31:26.715Z,5.55
2023-07-24T08:34:31.265Z,6.07
2023-07-24T08:37:36.364Z,5.70
2023-07-24T08:40:40.449Z,5.15
2023-07-24T08:43:45.617Z,6.60
2023-07-24T08:46:51.518Z,6.57
2023-07-24T08:49:56.980Z,6.30
2023-07-24T08:53:05.606Z,5.75
2023-07-24T08:56:11.293Z,5.13
2023-07-24T08:59:15.398Z,6.50
2023-07-24T09:02:18.894Z,5.82
2023-07-24T09:05:23.458Z,7.00
2023-07-24T09:08:36.039Z,5.50
2023-07-24T09:11:48.841Z,6.45
2023-07-24T09:15:03.823Z,6.53
2023-07-24T09:18:07.993Z,5.57
2023-07-24T09:21:13.203Z,6.13
2023-07-24T09:24:18.777Z,5.88
2023-07-24T09:27:24.296Z,11.93
2023-07-24T09:30:28.581Z,7.03
2023-07-24T09:33:39.568Z,7.68
2023-07-24T09:36:43.946Z,7.63
2023-07-24T09:39:50.249Z,5.55
2023-07-24T09:46:03.766Z,5.80
2023-07-24T09:49:09.494Z,7.15
2023-07-24T09:52:14.964Z,5.80
2023-07-24T09:55:24.486Z,5.75
2023-07-24T09:58:28.728Z,6.68
2023-07-24T10:01:34.987Z,6.43
2023-07-24T10:04:41.331Z,6.43
2023-07-24T10:07:45.991Z,7.15
2023-07-24T10:10:53.381Z,7.70
2023-07-24T10:13:57.896Z,7.43
2023-07-24T10:17:01.309Z,6.17
2023-07-24T10:20:07.865Z,10.07
2023-07-24T10:23:17.847Z,6.82
2023-07-24T10:26:28.551Z,6.18
2023-07-24T10:29:37.908Z,6.55
2023-07-24T10:32:50.849Z,7.00
2023-07-24T10:35:57.358Z,9.15
2023-07-24T10:39:02.648Z,6.55
2023-07-24T10:42:10.809Z,5.93
2023-07-24T10:45:15.118Z,8.23
2023-07-24T10:48:19.799Z,6.40
2023-07-24T10:51:23.996Z,7.05
2023-07-24T10:54:27.591Z,7.32
2023-07-24T10:57:33.198Z,7.45
2023-07-24T11:00:37.069Z,6.88
2023-07-24T11:03:43.904Z,6.23
2023-07-24T11:06:58.283Z,6.57
2023-07-24T11:10:02.944Z,6.57
2023-07-24T11:13:12.863Z,7.05
2023-07-24T11:16:16.590Z,10.90
2023-07-24T11:19:25.369Z,9.40
2023-07-24T11:22:29.283Z,6.40
2023-07-24T11:25:32.856Z,6.28
2023-07-24T11:28:43.392Z,7.75
2023-07-24T11:31:46.991Z,8.52
2023-07-24T11:34:52.944Z,7.43
2023-07-24T11:37:56.511Z,7.03
2023-07-24T11:41:02.482Z,8.10
2023-07-24T11:44:07.475Z,9.45
2023-07-24T11:47:11.547Z,8.00
2023-07-24T11:50:15.728Z,9.27
2023-07-24T11:53:25.033Z,9.52
2023-07-24T11:56:28.591Z,9.45
2023-07-24T11:59:40.678Z,8.35
2023-07-24T12:02:44.404Z,8.35
2023-07-24T12:05:50.621Z,8.40
2023-07-24T12:09:05.635Z,8.73
2023-07-24T12:12:16.255Z,6.88
2023-07-24T12:15:21.923Z,10.02
2023-07-24T12:18:25.862Z,8.50
2023-07-24T12:21:30.053Z,6.93
2023-07-24T12:24:34.613Z,8.82
2023-07-24T12:27:38.564Z,8.20
2023-07-24T12:30:43.963Z,7.75
2023-07-24T12:33:47.725Z,8.65
2023-07-24T12:36:53.866Z,7.40
2023-07-24T12:39:57.405Z,11.43
2023-07-24T12:43:01.200Z,8.23
2023-07-24T12:46:06.089Z,9.23
2023-07-24T12:49:10.092Z,7.28
2023-07-24T12:52:13.710Z,10.33
2023-07-24T12:55:17.980Z,9.63
2023-07-24T12:58:21.613Z,9.02
2023-07-24T13:01:30.867Z,7.50
2023-07-24T13:04:34.756Z,9.75
2023-07-24T13:07:38.702Z,8.73
2023-07-24T13:10:42.096Z,8.10
2023-07-24T13:13:46.473Z,7.95
2023-07-24T13:16:51.919Z,13.57
2023-07-24T13:19:55.899Z,12.30
2023-07-24T13:22:59.456Z,8.13
2023-07-24T13:26:03.789Z,7.85
2023-07-24T13:29:07.269Z,9.70
2023-07-24T13:32:13.150Z,7.90
2023-07-24T13:35:18.011Z,7.90
2023-07-24T13:38:22.629Z,9.43
2023-07-24T13:41:26.543Z,7.85
2023-07-24T13:44:30.856Z,8.77
2023-07-24T13:47:35.881Z,9.15
2023-07-24T13:50:39.784Z,7.97
2023-07-24T13:53:43.594Z,9.30
2023-07-24T13:56:47.782Z,11.05
2023-07-24T13:59:51.408Z,7.47
2023-07-24T14:02:56.809Z,8.05
2023-07-24T14:06:00.483Z,7.40
2023-07-24T14:09:05.141Z,9.03
2023-07-24T14:12:09.748Z,10.68
2023-07-24T14:15:14.098Z,9.07
2023-07-24T14:18:18.969Z,8.88
2023-07-24T14:21:22.857Z,8.07
2023-07-24T14:24:26.399Z,10.13
2023-07-24T14:27:30.621Z,7.72
2023-07-24T14:30:34.211Z,10.63
2023-07-24T14:33:39.613Z,10.23
2023-07-24T14:36:43.262Z,10.35
2023-07-24T14:39:47.124Z,10.27
2023-07-24T14:42:50.730Z,8.13
2023-07-24T14:45:54.648Z,8.27
2023-07-24T14:48:59.856Z,8.15
2023-07-24T14:52:04.241Z,9.52
2023-07-24T14:55:09.965Z,8.03
2023-07-24T14:58:14.222Z,8.43
2023-07-24T15:01:18.196Z,9.23
2023-07-24T15:04:25.015Z,8.18
2023-07-24T15:07:28.844Z,9.40
2023-07-24T15:10:32.818Z,9.83
2023-07-24T15:13:36.306Z,9.35
2023-07-24T15:16:40.419Z,8.80
2023-07-24T15:19:45.504Z,9.73
2023-07-24T15:22:49.435Z,18.75
2023-07-24T15:25:52.974Z,8.97
2023-07-24T15:28:57.310Z,8.32
2023-07-24T15:32:00.829Z,8.60
2023-07-24T15:35:07.806Z,8.55
2023-07-24T15:38:11.432Z,11.13
2023-07-24T15:41:15.831Z,14.27
2023-07-24T15:44:19.423Z,8.20
2023-07-24T15:47:24.417Z,6.60
2023-07-24T15:50:29.539Z,6.53
2023-07-24T15:53:33.551Z,6.28
2023-07-24T15:56:37.389Z,6.13
2023-07-24T15:59:41.430Z,6.38
2023-07-24T16:02:45.239Z,7.55
2023-07-24T16:05:50.726Z,6.70
2023-07-24T16:08:54.247Z,7.82
2023-07-24T16:11:57.940Z,7.53
2023-07-24T16:15:01.649Z,7.95
2023-07-24T16:18:06.710Z,7.00
2023-07-24T16:21:11.952Z,8.02
2023-07-24T16:24:18.341Z,8.23
2023-07-24T16:27:24.002Z,9.97
2023-07-24T16:30:28.215Z,9.70
2023-07-24T16:33:31.801Z,7.15
2023-07-24T16:36:37.200Z,7.30
2023-07-24T16:39:41.171Z,6.97
2023-07-24T16:42:46.606Z,6.50
2023-07-24T16:48:59.584Z,7.35
2023-07-24T16:52:04.638Z,7.55
2023-07-24T16:55:09.909Z,7.28
2023-07-24T16:58:13.360Z,8.33
2023-07-24T17:01:17.472Z,6.95
2023-07-24T17:04:21.047Z,8.60
2023-07-24T17:07:26.492Z,8.85
2023-07-24T17:10:43.088Z,9.20
2023-07-24T17:13:48.131Z,10.17
2023-07-24T17:16:51.560Z,8.90
2023-07-24T17:19:55.621Z,10.68
2023-07-24T17:23:00.784Z,8.55
2023-07-24T17:26:04.734Z,6.38
2023-07-24T17:29:08.514Z,7.17
2023-07-24T17:32:14.058Z,8.98
2023-07-24T17:35:17.616Z,8.13
2023-07-24T17:38:23.215Z,8.15
2023-07-24T17:41:28.139Z,9.23
2023-07-24T17:44:32.688Z,8.63
2023-07-24T17:47:36.427Z,8.13
2023-07-24T17:50:40.401Z,9.10
2023-07-24T17:53:45.392Z,9.05
2023-07-24T17:56:49.479Z,6.80
2023-07-24T17:59:53.147Z,9.87
2023-07-24T18:02:57.348Z,7.40
2023-07-24T18:06:01.042Z,10.48
2023-07-24T18:09:06.525Z,9.90
2023-07-24T18:12:10.579Z,9.57
2023-07-24T18:15:14.642Z,7.90
2023-07-24T18:18:18.177Z,7.55
2023-07-24T18:21:22.181Z,8.73
2023-07-24T18:24:27.200Z,8.52
2023-07-24T18:27:31.173Z,10.50
2023-07-24T18:30:35.075Z,12.80
2023-07-24T18:33:39.025Z,10.50
2023-07-24T18:36:42.568Z,14.25
2023-07-24T18:39:47.832Z,10.98
2023-07-24T18:42:51.248Z,9.82
2023-07-24T18:45:58.172Z,9.80
2023-07-24T18:49:01.786Z,12.20
2023-07-24T18:52:07.014Z,9.32
2023-07-24T18:55:12.147Z,10.18
2023-07-24T18:58:16.157Z,9.75
2023-07-24T19:01:19.812Z,10.67
2023-07-24T19:04:24.007Z,10.63
2023-07-24T19:07:27.728Z,9.57
2023-07-24T19:10:33.433Z,10.27
2023-07-24T19:13:37.375Z,10.47
2023-07-24T19:16:41.515Z,14.20
2023-07-24T19:19:45.415Z,10.65
2023-07-24T19:22:49.692Z,11.88
2023-07-24T19:25:54.669Z,9.90
2023-07-24T19:28:59.308Z,9.20
2023-07-24T19:32:03.187Z,9.55
2023-07-24T19:35:08.145Z,12.43
2023-07-24T19:38:13.099Z,9.55
2023-07-24T19:41:18.520Z,11.25
2023-07-24T19:44:22.110Z,11.60
2023-07-24T19:47:26.346Z,10.07
2023-07-24T19:50:29.875Z,10.18
2023-07-24T19:53:33.773Z,12.40
2023-07-24T19:56:38.904Z,9.73
2023-07-24T19:59:42.894Z,9.87
2023-07-24T20:02:46.736Z,11.43
2023-07-24T20:05:55.704Z,10.88
2023-07-24T20:09:01.032Z,9.80
2023-07-24T20:12:07.724Z,13.23
2023-07-24T20:15:12.299Z,11.40
2023-07-24T20:18:16.406Z,10.63
2023-07-24T20:21:22.672Z,10.95
2023-07-24T20:24:27.020Z,13.35
2023-07-24T20:27:31.939Z,10.18
2023-07-24T20:30:35.833Z,12.00
2023-07-24T20:33:39.416Z,12.20
2023-07-24T20:36:44.186Z,10.60
2023-07-24T20:39:47.719Z,10.45
2023-07-24T20:42:53.128Z,14.53
2023-07-24T20:45:56.748Z,12.70
2023-07-24T20:49:01.670Z,10.98
2023-07-24T20:52:06.066Z,16.20
2023-07-24T20:55:10.968Z,11.65
2023-07-24T20:58:15.902Z,12.33
2023-07-24T21:01:22.960Z,12.63
2023-07-24T21:04:26.629Z,11.15
2023-07-24T21:07:30.752Z,10.52
2023-07-24T21:10:34.676Z,10.88
2023-07-24T21:13:39.933Z,10.23
2023-07-24T21:16:43.489Z,8.35
2023-07-24T21:19:48.226Z,10.95
2023-07-24T21:22:51.774Z,10.18
2023-07-24T21:25:57.233Z,9.93
2023-07-24T21:29:02.253Z,10.20
2023-07-24T21:32:07.772Z,9.40
2023-07-24T21:35:11.408Z,9.98
2023-07-24T21:38:15.405Z,8.98
2023-07-24T21:41:18.991Z,8.83
2023-07-24T21:44:24.280Z,7.82
2023-07-24T21:47:28.039Z,8.82
2023-07-24T21:50:32.105Z,7.22
2023-07-24T21:53:37.510Z,8.20
2023-07-24T21:56:41.536Z,9.45
2023-07-24T21:59:46.758Z,8.93
2023-07-24T22:02:51.089Z,6.75
2023-07-24T22:05:54.912Z,7.20
2023-07-24T22:08:59.436Z,7.63
2023-07-24T22:12:03.506Z,8.38
2023-07-24T22:15:10.234Z,7.85
2023-07-24T22:18:14.030Z,7.70
2023-07-24T22:21:17.940Z,11.00
2023-07-24T22:24:21.674Z,7.57
2023-07-24T22:27:26.256Z,8.48
2023-07-24T22:30:31.662Z,8.68
2023-07-24T22:33:36.532Z,6.85
2023-07-24T22:36:41.097Z,8.57
2023-07-24T22:39:45.293Z,6.45
2023-07-24T22:42:48.838Z,6.78
2023-07-24T22:45:54.368Z,7.22
2023-07-24T22:48:57.947Z,7.90
2023-07-24T22:52:01.993Z,7.30
2023-07-24T22:55:06.779Z,7.80
2023-07-24T22:58:10.732Z,8.88
2023-07-24T23:01:15.652Z,7.82
2023-07-24T23:04:22.548Z,7.50
2023-07-24T23:07:26.012Z,8.10
2023-07-24T23:10:30.237Z,7.18
2023-07-24T23:13:33.699Z,7.72
2023-07-24T23:16:39.348Z,8.10
2023-07-24T23:19:43.011Z,8.93
2023-07-24T23:22:48.083Z,8.52
2023-07-24T23:25:51.623Z,6.35
2023-07-24T23:28:58.557Z,8.57
2023-07-24T23:32:04.117Z,7.72
2023-07-24T23:35:09.044Z,6.30
2023-07-24T23:38:12.744Z,6.95
2023-07-24T23:41:17.155Z,8.68
2023-07-24T23:44:20.959Z,7.00
2023-07-24T23:47:26.390Z,6.95
2023-07-24T23:50:30.426Z,7.30
2023-07-24T23:53:34.134Z,8.13
2023-07-24T23:56:37.715Z,6.97
2023-07-24T23:59:41.494Z,8.90
